createdAt,value
2018-10-06T00:01:04.832Z,10.37
2018-10-06T00:03:33.992Z,10.28
2018-10-06T00:06:03.241Z,10.27
2018-10-06T00:08:32.456Z,10.31
2018-10-06T00:11:01.685Z,10.29
2018-10-06T00:13:30.926Z,10.27
2018-10-06T00:16:00.055Z,10.23
2018-10-06T00:18:29.300Z,10.15
2018-10-06T00:20:58.422Z,10.13
2018-10-06T00:23:27.666Z,10.08
2018-10-06T00:25:56.775Z,10.07
2018-10-06T00:28:26.080Z,10.07
2018-10-06T00:30:55.244Z,10.03
2018-10-06T00:33:25.408Z,10.00
2018-10-06T00:35:54.648Z,9.99
2018-10-06T00:38:24.054Z,10.02
2018-10-06T00:40:53.312Z,10.05
2018-10-06T00:43:22.981Z,10.05
2018-10-06T00:45:52.132Z,10.04
2018-10-06T00:48:22.443Z,10.04
2018-10-06T00:50:51.690Z,10.05
2018-10-06T00:53:21.287Z,10.04
2018-10-06T00:55:50.453Z,9.99
2018-10-06T00:58:19.668Z,9.93
2018-10-06T01:00:48.728Z,9.90
2018-10-06T01:03:17.887Z,9.82
2018-10-06T01:05:47.063Z,9.75
2018-10-06T01:08:16.152Z,9.69
2018-10-06T01:10:45.241Z,9.64
2018-10-06T01:13:14.316Z,9.58
2018-10-06T01:15:43.501Z,9.52
2018-10-06T01:18:12.661Z,9.43
2018-10-06T01:20:41.677Z,9.39
2018-10-06T01:23:10.801Z,9.34
2018-10-06T01:25:39.822Z,9.31
2018-10-06T01:28:08.862Z,9.31
2018-10-06T01:30:37.891Z,9.28
2018-10-06T01:33:07.080Z,9.25
2018-10-06T01:35:36.249Z,9.20
2018-10-06T01:38:05.381Z,9.16
2018-10-06T01:40:34.544Z,9.14
2018-10-06T01:43:03.739Z,9.14
2018-10-06T01:45:32.985Z,9.11
2018-10-06T01:48:02.080Z,9.10
2018-10-06T01:50:31.248Z,9.10
2018-10-06T01:53:00.317Z,9.14
2018-10-06T01:55:29.396Z,9.16
2018-10-06T01:57:58.573Z,9.14
2018-10-06T02:00:27.617Z,9.10
2018-10-06T02:02:56.724Z,9.06
2018-10-06T02:05:26.184Z,9.08
2018-10-06T02:07:56.063Z,9.10
2018-10-06T02:10:25.178Z,9.02
2018-10-06T02:12:54.289Z,8.90
2018-10-06T02:15:23.400Z,8.78
2018-10-06T02:17:53.509Z,8.69
2018-10-06T02:20:22.817Z,8.62
2018-10-06T02:22:51.820Z,8.58
2018-10-06T02:25:20.945Z,8.50
2018-10-06T02:27:50.741Z,8.46
2018-10-06T02:30:19.729Z,8.46
2018-10-06T02:32:48.802Z,8.40
2018-10-06T02:35:17.963Z,8.28
2018-10-06T02:37:47.170Z,8.22
2018-10-06T02:40:16.505Z,8.22
2018-10-06T02:42:45.481Z,8.31
2018-10-06T02:45:14.694Z,8.42
2018-10-06T02:47:43.741Z,8.52
2018-10-06T02:50:12.848Z,8.60
2018-10-06T02:52:41.885Z,8.69
2018-10-06T02:55:10.973Z,8.80
2018-10-06T02:57:40.061Z,8.93
2018-10-06T03:00:09.178Z,9.09
2018-10-06T03:02:38.589Z,9.22
2018-10-06T03:05:07.705Z,9.28
2018-10-06T03:07:36.665Z,9.29
2018-10-06T03:10:05.934Z,9.28
2018-10-06T03:12:35.034Z,9.23
2018-10-06T03:15:04.236Z,9.23
2018-10-06T03:17:33.383Z,9.20
2018-10-06T03:20:02.600Z,9.13
2018-10-06T03:22:31.558Z,9.06
2018-10-06T03:25:00.673Z,9.04
2018-10-06T03:27:29.725Z,9.02
2018-10-06T03:29:58.828Z,9.01
2018-10-06T03:32:27.896Z,8.95
2018-10-06T03:34:57.009Z,8.85
2018-10-06T03:37:26.197Z,8.77
2018-10-06T03:39:55.488Z,8.74
2018-10-06T03:42:24.632Z,8.77
2018-10-06T03:44:53.917Z,8.89
2018-10-06T03:47:23.066Z,9.05
2018-10-06T03:49:52.109Z,9.14
2018-10-06T03:52:21.253Z,9.20
2018-10-06T03:54:50.407Z,9.16
2018-10-06T03:57:19.492Z,9.12
2018-10-06T03:59:48.806Z,9.01
2018-10-06T04:02:17.850Z,8.85
2018-10-06T04:04:46.993Z,8.76
2018-10-06T04:07:16.239Z,8.67
2018-10-06T04:09:45.462Z,8.58
2018-10-06T04:12:14.574Z,8.50
2018-10-06T04:14:43.774Z,8.44
2018-10-06T04:17:12.862Z,8.44
2018-10-06T04:19:41.981Z,8.44
2018-10-06T04:22:11.053Z,8.48
2018-10-06T04:24:40.229Z,8.47
2018-10-06T04:27:09.327Z,8.35
2018-10-06T04:29:38.429Z,8.21
2018-10-06T04:32:07.479Z,8.07
2018-10-06T04:34:36.642Z,7.98
2018-10-06T04:37:05.766Z,7.99
2018-10-06T04:39:34.810Z,7.97
2018-10-06T04:42:04.003Z,7.93
2018-10-06T04:44:33.210Z,7.87
2018-10-06T04:47:02.383Z,7.82
2018-10-06T04:49:31.565Z,7.78
2018-10-06T04:52:00.740Z,7.77
2018-10-06T04:54:29.841Z,7.77
2018-10-06T04:56:58.982Z,7.79
2018-10-06T04:59:28.034Z,7.82
2018-10-06T05:01:57.099Z,7.81
2018-10-06T05:04:26.177Z,7.78
2018-10-06T05:06:55.267Z,7.79
2018-10-06T05:09:24.573Z,7.82
2018-10-06T05:11:53.556Z,7.83
2018-10-06T05:14:23.249Z,7.82
2018-10-06T05:16:52.468Z,7.84
2018-10-06T05:19:21.843Z,7.85
2018-10-06T05:21:50.975Z,7.81
2018-10-06T05:24:20.417Z,7.76
2018-10-06T05:26:49.787Z,7.73
2018-10-06T05:29:18.756Z,7.74
2018-10-06T05:31:47.968Z,7.69
2018-10-06T05:34:17.145Z,7.61
2018-10-06T05:36:46.395Z,7.54
2018-10-06T05:39:15.326Z,7.47
2018-10-06T05:41:44.329Z,7.41
2018-10-06T05:44:13.310Z,7.50
2018-10-06T05:46:43.364Z,7.59
2018-10-06T05:49:13.182Z,7.60
2018-10-06T05:51:42.344Z,7.61
2018-10-06T05:54:11.369Z,7.72
2018-10-06T05:56:40.547Z,7.82
2018-10-06T05:59:09.551Z,7.86
2018-10-06T06:01:38.713Z,7.92
2018-10-06T06:04:07.796Z,7.94
2018-10-06T06:06:36.799Z,7.92
2018-10-06T06:09:07.297Z,7.91
2018-10-06T06:11:36.487Z,8.01
2018-10-06T06:14:05.605Z,8.11
2018-10-06T06:16:34.952Z,8.20
2018-10-06T06:19:04.305Z,8.25
2018-10-06T06:21:33.365Z,8.27
2018-10-06T06:24:02.518Z,8.24
2018-10-06T06:26:31.609Z,8.24
2018-10-06T06:29:00.753Z,8.21
2018-10-06T06:31:30.139Z,8.22
2018-10-06T06:33:58.978Z,8.25
2018-10-06T06:36:28.169Z,8.33
2018-10-06T06:38:57.573Z,8.44
2018-10-06T06:41:26.744Z,8.55
2018-10-06T06:43:55.886Z,8.72
2018-10-06T06:46:25.061Z,8.89
2018-10-06T06:48:55.251Z,9.03
2018-10-06T06:51:24.400Z,9.20
2018-10-06T06:53:54.149Z,9.37
2018-10-06T06:56:23.286Z,9.53
2018-10-06T06:58:52.373Z,9.68
2018-10-06T07:01:21.626Z,9.80
2018-10-06T07:03:51.064Z,9.92
2018-10-06T07:06:21.197Z,10.02
2018-10-06T07:08:50.375Z,10.11
2018-10-06T07:11:19.848Z,10.25
2018-10-06T07:13:49.810Z,10.43
2018-10-06T07:16:18.971Z,10.55
2018-10-06T07:18:48.450Z,10.63
2018-10-06T07:21:17.705Z,10.75
2018-10-06T07:23:46.943Z,10.90
2018-10-06T07:26:16.008Z,11.07
2018-10-06T07:28:45.208Z,11.18
2018-10-06T07:31:14.544Z,11.27
2018-10-06T07:33:43.748Z,11.34
2018-10-06T07:36:12.885Z,11.48
2018-10-06T07:38:42.112Z,11.67
2018-10-06T07:41:11.206Z,11.78
2018-10-06T07:43:40.413Z,11.91
2018-10-06T07:46:09.508Z,12.03
2018-10-06T07:48:38.876Z,12.19
2018-10-06T07:51:08.025Z,12.31
2018-10-06T07:53:37.188Z,12.43
2018-10-06T07:56:06.292Z,12.61
2018-10-06T07:58:35.383Z,12.73
2018-10-06T08:01:04.598Z,12.86
2018-10-06T08:03:33.836Z,12.99
2018-10-06T08:06:03.039Z,13.11
2018-10-06T08:08:32.165Z,13.29
2018-10-06T08:11:01.622Z,13.45
2018-10-06T08:13:30.691Z,13.59
2018-10-06T08:16:00.098Z,13.70
2018-10-06T08:18:29.279Z,13.84
2018-10-06T08:20:58.713Z,13.96
2018-10-06T08:23:28.337Z,14.02
2018-10-06T08:25:57.404Z,14.08
2018-10-06T08:28:26.564Z,14.14
2018-10-06T08:30:55.666Z,14.15
2018-10-06T08:33:24.938Z,14.18
2018-10-06T08:35:54.081Z,14.27
2018-10-06T08:38:23.252Z,14.39
2018-10-06T08:40:52.275Z,14.46
2018-10-06T08:43:21.389Z,14.57
2018-10-06T08:45:50.554Z,14.71
2018-10-06T08:48:19.917Z,14.85
2018-10-06T08:50:49.199Z,14.95
2018-10-06T08:53:18.320Z,15.08
2018-10-06T08:55:47.734Z,15.25
2018-10-06T08:58:17.188Z,15.43
2018-10-06T09:00:46.452Z,15.73
2018-10-06T09:03:15.641Z,15.93
2018-10-06T09:05:44.865Z,16.05
2018-10-06T09:08:14.015Z,16.10
2018-10-06T09:10:43.086Z,16.13
2018-10-06T09:13:12.267Z,16.20
2018-10-06T09:15:41.323Z,16.18
2018-10-06T09:18:10.556Z,16.37
2018-10-06T09:20:39.708Z,16.65
2018-10-06T09:23:09.386Z,16.83
2018-10-06T09:25:38.659Z,16.95
2018-10-06T09:28:08.224Z,17.12
2018-10-06T09:30:37.410Z,17.18
2018-10-06T09:33:07.169Z,17.14
2018-10-06T09:35:36.452Z,17.22
2018-10-06T09:38:05.569Z,17.28
2018-10-06T09:40:34.836Z,17.32
2018-10-06T09:43:04.124Z,17.35
2018-10-06T09:45:33.368Z,17.49
2018-10-06T09:48:02.613Z,17.62
2018-10-06T09:50:31.816Z,17.71
2018-10-06T09:53:00.922Z,17.74
2018-10-06T09:55:30.064Z,17.78
2018-10-06T09:57:59.084Z,17.84
2018-10-06T10:00:33.222Z,17.98
2018-10-06T10:03:07.444Z,18.19
2018-10-06T10:05:41.667Z,18.37
2018-10-06T10:08:10.835Z,18.40
2018-10-06T10:10:43.697Z,18.43
2018-10-06T10:13:12.906Z,18.59
2018-10-06T10:15:42.029Z,18.67
2018-10-06T10:18:11.483Z,18.91
2018-10-06T10:20:40.560Z,18.90
2018-10-06T10:23:09.942Z,18.96
2018-10-06T10:25:39.453Z,19.13
2018-10-06T10:28:08.829Z,19.31
2018-10-06T10:30:38.009Z,19.40
2018-10-06T10:33:07.224Z,19.62
2018-10-06T10:35:36.652Z,19.75
2018-10-06T10:38:05.805Z,19.86
2018-10-06T10:40:35.241Z,19.78
2018-10-06T10:43:04.341Z,19.83
2018-10-06T10:45:33.622Z,20.00
2018-10-06T10:48:02.802Z,20.14
2018-10-06T10:50:32.117Z,20.37
2018-10-06T10:53:01.406Z,20.51
2018-10-06T10:55:30.935Z,20.53
2018-10-06T10:58:00.117Z,20.60
2018-10-06T11:00:29.549Z,20.85
2018-10-06T11:02:58.729Z,21.07
2018-10-06T11:05:27.891Z,21.23
2018-10-06T11:07:57.158Z,21.31
2018-10-06T11:10:26.230Z,21.29
2018-10-06T11:12:55.372Z,21.30
2018-10-06T11:15:24.624Z,21.43
2018-10-06T11:17:53.777Z,21.58
2018-10-06T11:20:23.016Z,21.70
2018-10-06T11:22:52.250Z,21.79
2018-10-06T11:25:21.471Z,21.89
2018-10-06T11:27:50.815Z,22.05
2018-10-06T11:30:20.097Z,22.19
2018-10-06T11:32:49.556Z,22.20
2018-10-06T11:35:19.068Z,22.32
2018-10-06T11:37:48.503Z,22.39
2018-10-06T11:40:17.597Z,22.46
2018-10-06T11:42:47.367Z,22.53
2018-10-06T11:45:16.418Z,22.67
2018-10-06T11:47:45.597Z,22.78
2018-10-06T11:50:14.849Z,22.88
2018-10-06T11:52:43.973Z,23.01
2018-10-06T11:55:13.232Z,23.15
2018-10-06T11:57:42.364Z,23.27
2018-10-06T12:00:11.772Z,23.34
2018-10-06T12:02:40.789Z,23.34
2018-10-06T12:05:10.004Z,23.46
2018-10-06T12:07:39.465Z,23.59
2018-10-06T12:10:09.343Z,23.72
2018-10-06T12:12:38.501Z,23.84
2018-10-06T12:15:07.693Z,23.88
2018-10-06T12:17:36.901Z,23.96
2018-10-06T12:20:06.311Z,24.05
2018-10-06T12:22:35.541Z,24.10
2018-10-06T12:25:04.737Z,24.30
2018-10-06T12:27:34.033Z,24.43
2018-10-06T12:30:03.150Z,24.43
2018-10-06T12:32:32.294Z,24.52
2018-10-06T12:35:01.431Z,24.62
2018-10-06T12:37:30.660Z,24.70
2018-10-06T12:40:00.001Z,24.78
2018-10-06T12:42:29.106Z,24.63
2018-10-06T12:44:58.264Z,24.78
2018-10-06T12:47:27.484Z,24.91
2018-10-06T12:49:56.693Z,25.03
2018-10-06T12:52:25.823Z,25.27
2018-10-06T12:54:55.051Z,25.39
2018-10-06T12:57:24.258Z,25.48
2018-10-06T12:59:53.479Z,25.63
2018-10-06T13:02:22.677Z,25.68
2018-10-06T13:04:51.894Z,25.77
2018-10-06T13:07:21.080Z,25.65
2018-10-06T13:09:50.324Z,25.61
2018-10-06T13:12:19.562Z,25.88
2018-10-06T13:14:48.785Z,25.94
2018-10-06T13:17:18.080Z,25.91
2018-10-06T13:19:47.444Z,25.80
2018-10-06T13:22:16.565Z,26.28
2018-10-06T13:24:46.281Z,27.55
2018-10-06T13:27:15.316Z,28.61
2018-10-06T13:29:44.885Z,29.46
2018-10-06T13:32:14.143Z,29.32
2018-10-06T13:34:43.286Z,30.06
2018-10-06T13:37:12.582Z,31.13
2018-10-06T13:39:42.216Z,32.09
2018-10-06T13:42:11.385Z,32.90
2018-10-06T13:44:41.112Z,33.24
2018-10-06T13:47:10.438Z,33.57
2018-10-06T13:49:39.717Z,33.29
2018-10-06T13:52:09.077Z,33.18
2018-10-06T13:54:38.354Z,33.21
2018-10-06T13:57:07.926Z,33.61
2018-10-06T13:59:38.571Z,33.11
2018-10-06T14:02:07.719Z,32.52
2018-10-06T14:04:36.963Z,31.08
2018-10-06T14:07:06.189Z,30.71
2018-10-06T14:09:35.417Z,30.50
2018-10-06T14:12:05.600Z,30.88
2018-10-06T14:14:34.943Z,31.28
2018-10-06T14:17:04.184Z,30.78
2018-10-06T14:19:33.561Z,30.80
2018-10-06T14:22:02.702Z,30.54
2018-10-06T14:24:31.745Z,30.61
2018-10-06T14:27:00.770Z,30.65
2018-10-06T14:29:30.190Z,30.28
2018-10-06T14:32:02.473Z,30.63
2018-10-06T14:34:31.554Z,30.54
2018-10-06T14:37:00.698Z,30.94
2018-10-06T14:39:29.691Z,31.11
2018-10-06T14:41:58.927Z,31.51
2018-10-06T14:44:28.195Z,31.83
2018-10-06T14:46:57.375Z,31.32
2018-10-06T14:49:26.525Z,30.92
2018-10-06T14:51:56.591Z,30.79
2018-10-06T14:54:25.793Z,30.84
2018-10-06T14:56:55.052Z,31.28
2018-10-06T14:59:24.137Z,31.47
2018-10-06T15:01:57.083Z,31.67
2018-10-06T15:04:26.415Z,31.70
2018-10-06T15:06:55.549Z,30.06
2018-10-06T15:09:24.631Z,28.62
2018-10-06T15:11:53.730Z,27.75
2018-10-06T15:14:22.845Z,27.73
2018-10-06T15:16:51.981Z,27.95
2018-10-06T15:19:21.075Z,28.17
2018-10-06T15:21:54.004Z,29.25
2018-10-06T15:24:23.019Z,30.46
2018-10-06T15:26:52.097Z,31.15
2018-10-06T15:29:21.112Z,31.05
2018-10-06T15:31:50.201Z,31.19
2018-10-06T15:34:19.386Z,31.33
2018-10-06T15:36:49.266Z,31.09
2018-10-06T15:39:18.387Z,30.69
2018-10-06T15:41:47.443Z,30.49
2018-10-06T15:44:16.651Z,30.45
2018-10-06T15:46:45.777Z,29.85
2018-10-06T15:49:15.379Z,29.20
2018-10-06T15:51:44.536Z,28.46
2018-10-06T15:54:13.681Z,27.58
2018-10-06T15:56:42.803Z,26.70
2018-10-06T15:59:11.893Z,26.48
2018-10-06T16:01:40.943Z,26.17
2018-10-06T16:04:09.953Z,25.75
2018-10-06T16:06:39.083Z,25.29
2018-10-06T16:09:08.417Z,24.86
2018-10-06T16:11:38.274Z,24.57
2018-10-06T16:14:07.784Z,24.29
2018-10-06T16:16:36.864Z,24.01
2018-10-06T16:19:05.893Z,23.80
2018-10-06T16:21:34.993Z,23.69
2018-10-06T16:24:04.395Z,23.57
2018-10-06T16:26:34.343Z,23.32
2018-10-06T16:29:03.430Z,23.00
2018-10-06T16:31:32.465Z,22.60
2018-10-06T16:34:01.827Z,22.21
2018-10-06T16:36:30.844Z,21.78
2018-10-06T16:38:59.925Z,21.39
2018-10-06T16:41:29.107Z,20.98
2018-10-06T16:43:58.125Z,20.53
2018-10-06T16:46:27.272Z,20.05
2018-10-06T16:48:56.289Z,19.55
2018-10-06T16:51:25.561Z,19.14
2018-10-06T16:53:54.689Z,18.74
2018-10-06T16:56:24.151Z,18.38
2018-10-06T16:58:53.154Z,18.04
2018-10-06T17:01:22.316Z,17.73
2018-10-06T17:03:52.680Z,17.42
2018-10-06T17:06:21.882Z,17.11
2018-10-06T17:08:50.964Z,16.85
2018-10-06T17:11:20.868Z,16.63
2018-10-06T17:13:50.544Z,16.44
2018-10-06T17:16:19.587Z,16.28
2018-10-06T17:18:48.723Z,16.11
2018-10-06T17:21:17.876Z,15.93
2018-10-06T17:23:46.985Z,15.74
2018-10-06T17:26:16.094Z,15.58
2018-10-06T17:28:45.222Z,15.44
2018-10-06T17:31:14.506Z,15.38
2018-10-06T17:33:43.649Z,15.28
2018-10-06T17:36:12.885Z,15.18
2018-10-06T17:38:42.001Z,15.06
2018-10-06T17:41:11.032Z,14.97
2018-10-06T17:43:40.712Z,14.89
2018-10-06T17:46:09.910Z,14.79
2018-10-06T17:48:39.112Z,14.69
2018-10-06T17:51:08.161Z,14.60
2018-10-06T17:53:37.447Z,14.50
2018-10-06T17:56:06.632Z,14.43
2018-10-06T17:58:35.829Z,14.35
2018-10-06T18:01:04.942Z,14.30
2018-10-06T18:03:34.120Z,14.23
2018-10-06T18:06:03.216Z,14.16
2018-10-06T18:08:32.285Z,14.08
2018-10-06T18:11:01.464Z,14.02
2018-10-06T18:13:31.475Z,14.01
2018-10-06T18:16:00.636Z,14.03
2018-10-06T18:18:29.704Z,13.95
2018-10-06T18:20:58.858Z,13.87
2018-10-06T18:23:27.945Z,13.80
2018-10-06T18:25:57.133Z,13.73
2018-10-06T18:28:26.085Z,13.67
2018-10-06T18:30:55.225Z,13.64
2018-10-06T18:33:24.412Z,13.60
2018-10-06T18:35:53.468Z,13.53
2018-10-06T18:38:22.544Z,13.48
2018-10-06T18:40:52.222Z,13.49
2018-10-06T18:43:21.641Z,13.71
2018-10-06T18:45:50.750Z,14.13
2018-10-06T18:48:19.861Z,14.58
2018-10-06T18:50:49.041Z,14.74
2018-10-06T18:53:18.220Z,14.63
2018-10-06T18:55:47.337Z,14.45
2018-10-06T18:58:16.471Z,14.27
2018-10-06T19:00:45.668Z,14.15
2018-10-06T19:03:15.075Z,14.10
2018-10-06T19:05:44.197Z,14.10
2018-10-06T19:08:13.454Z,14.07
2018-10-06T19:10:42.710Z,14.06
2018-10-06T19:13:12.197Z,14.23
2018-10-06T19:15:41.324Z,14.25
2018-10-06T19:18:10.434Z,14.24
2018-10-06T19:20:39.503Z,14.14
2018-10-06T19:23:08.570Z,13.94
2018-10-06T19:25:37.641Z,13.71
2018-10-06T19:28:06.714Z,13.57
2018-10-06T19:30:35.745Z,13.45
2018-10-06T19:33:04.835Z,13.39
2018-10-06T19:35:34.033Z,13.43
2018-10-06T19:38:03.039Z,13.74
2018-10-06T19:40:32.235Z,14.15
2018-10-06T19:43:01.441Z,14.54
2018-10-06T19:45:30.549Z,14.72
2018-10-06T19:47:59.648Z,14.60
2018-10-06T19:50:28.791Z,14.65
2018-10-06T19:52:58.055Z,14.54
2018-10-06T19:55:27.185Z,14.42
2018-10-06T19:57:56.259Z,14.47
2018-10-06T20:00:25.409Z,14.68
2018-10-06T20:02:54.463Z,14.87
2018-10-06T20:05:23.505Z,15.01
2018-10-06T20:07:52.656Z,15.25
2018-10-06T20:10:21.867Z,15.44
2018-10-06T20:12:51.042Z,15.57
2018-10-06T20:15:20.078Z,15.63
2018-10-06T20:17:49.076Z,15.57
2018-10-06T20:20:18.056Z,15.65
2018-10-06T20:22:47.305Z,15.83
2018-10-06T20:25:16.488Z,15.94
2018-10-06T20:27:45.669Z,16.06
2018-10-06T20:30:14.865Z,16.12
2018-10-06T20:32:44.046Z,16.09
2018-10-06T20:35:13.193Z,16.00
2018-10-06T20:37:42.316Z,15.98
2018-10-06T20:40:11.486Z,16.08
2018-10-06T20:42:40.649Z,16.27
2018-10-06T20:45:09.738Z,16.30
2018-10-06T20:47:38.968Z,16.33
2018-10-06T20:50:08.024Z,16.41
2018-10-06T20:52:37.185Z,16.44
2018-10-06T20:55:06.581Z,16.51
2018-10-06T20:57:35.790Z,16.52
2018-10-06T21:00:05.107Z,16.45
2018-10-06T21:02:34.233Z,16.32
2018-10-06T21:05:03.414Z,16.21
2018-10-06T21:07:32.523Z,16.14
2018-10-06T21:10:01.596Z,16.15
2018-10-06T21:12:30.856Z,16.11
2018-10-06T21:14:59.976Z,16.16
2018-10-06T21:17:29.009Z,16.17
2018-10-06T21:19:58.185Z,16.07
2018-10-06T21:22:27.358Z,16.02
2018-10-06T21:24:56.373Z,16.00
2018-10-06T21:27:25.464Z,15.91
2018-10-06T21:29:54.474Z,15.79
2018-10-06T21:32:23.512Z,15.80
2018-10-06T21:34:53.430Z,15.83
2018-10-06T21:37:22.551Z,15.76
2018-10-06T21:39:51.525Z,15.68
2018-10-06T21:42:20.680Z,15.64
2018-10-06T21:44:49.878Z,15.68
2018-10-06T21:47:19.025Z,15.68
2018-10-06T21:49:48.302Z,15.65
2018-10-06T21:52:17.419Z,15.72
2018-10-06T21:54:47.216Z,15.78
2018-10-06T21:57:16.348Z,15.88
2018-10-06T21:59:45.417Z,15.96
2018-10-06T22:02:14.493Z,15.96
2018-10-06T22:04:43.648Z,15.93
2018-10-06T22:07:12.800Z,15.92
2018-10-06T22:09:41.953Z,15.85
2018-10-06T22:12:11.129Z,15.78
2018-10-06T22:14:40.250Z,15.72
2018-10-06T22:17:09.465Z,15.66
2018-10-06T22:19:38.676Z,15.65
2018-10-06T22:22:07.879Z,15.60
2018-10-06T22:24:36.953Z,15.57
2018-10-06T22:27:06.168Z,15.54
2018-10-06T22:29:35.358Z,15.45
2018-10-06T22:32:04.550Z,15.34
2018-10-06T22:34:33.642Z,15.22
2018-10-06T22:37:03.628Z,15.09
2018-10-06T22:39:32.831Z,14.97
2018-10-06T22:42:01.893Z,14.92
2018-10-06T22:44:31.757Z,14.90
2018-10-06T22:47:01.210Z,14.78
2018-10-06T22:49:30.327Z,14.72
2018-10-06T22:51:59.506Z,14.69
2018-10-06T22:54:29.085Z,14.69
2018-10-06T22:56:58.147Z,14.53
2018-10-06T22:59:27.203Z,14.52
2018-10-06T23:01:56.312Z,14.59
2018-10-06T23:04:25.712Z,14.55
2018-10-06T23:06:55.043Z,14.55
2018-10-06T23:09:24.232Z,14.42
2018-10-06T23:11:53.435Z,14.30
2018-10-06T23:14:22.545Z,14.27
2018-10-06T23:16:51.770Z,14.26
2018-10-06T23:19:20.817Z,14.12
2018-10-06T23:21:49.860Z,14.07
2018-10-06T23:24:19.019Z,14.09
2018-10-06T23:26:48.244Z,14.06
2018-10-06T23:29:17.704Z,14.00
2018-10-06T23:31:46.893Z,14.04
2018-10-06T23:34:15.910Z,14.01
2018-10-06T23:36:45.005Z,13.98
2018-10-06T23:39:14.162Z,13.96
2018-10-06T23:41:43.248Z,13.91
2018-10-06T23:44:12.495Z,13.82
2018-10-06T23:46:41.699Z,13.87
2018-10-06T23:49:11.120Z,14.04
2018-10-06T23:51:40.361Z,14.10
2018-10-06T23:54:09.557Z,14.13
2018-10-06T23:56:38.987Z,14.12
2018-10-06T23:59:08.069Z,14.09
